createdAt,value
2023-01-28T00:02:54.668Z,101134.19
2023-01-28T00:07:57.725Z,101144.28
2023-01-28T00:12:59.154Z,101152.72
2023-01-28T00:18:00.696Z,101149.38
2023-01-28T00:23:02.263Z,101141.81
2023-01-28T00:28:03.723Z,101149.34
2023-01-28T00:33:05.184Z,101138.47
2023-01-28T00:38:06.633Z,101145.13
2023-01-28T00:43:08.031Z,101140.91
2023-01-28T00:48:09.550Z,101146.84
2023-01-28T00:53:10.995Z,101156.03
2023-01-28T00:58:12.385Z,101150.16
2023-01-28T01:03:13.860Z,101146.84
2023-01-28T01:08:15.300Z,101140.97
2023-01-28T01:13:16.716Z,101144.34
2023-01-28T01:18:18.721Z,101144.38
2023-01-28T01:23:20.106Z,101148.59
2023-01-28T01:28:22.389Z,101152.81
2023-01-28T01:33:23.808Z,101156.13
2023-01-28T01:38:26.171Z,101156.13
2023-01-28T01:43:57.159Z,101153.56
2023-01-28T01:49:14.719Z,101154.41
2023-01-28T01:54:17.347Z,101143.53
2023-01-28T01:59:25.373Z,101149.38
2023-01-28T02:04:30.989Z,101154.44
2023-01-28T02:09:36.090Z,101142.72
2023-01-28T02:14:44.432Z,101141.91
2023-01-28T02:19:58.749Z,101146.09
2023-01-28T02:25:42.966Z,101146.94
2023-01-28T02:31:10.488Z,101152.00
2023-01-28T02:36:25.116Z,101156.19
2023-01-28T02:41:35.750Z,101152.78
2023-01-28T02:46:56.658Z,101150.25
2023-01-28T02:52:05.996Z,101162.78
2023-01-28T02:57:13.729Z,101167.81
2023-01-28T03:02:27.245Z,101165.31
2023-01-28T03:07:32.309Z,101166.22
2023-01-28T03:12:55.677Z,101167.97
2023-01-28T03:18:30.483Z,101157.97
2023-01-28T03:24:22.823Z,101163.91
2023-01-28T03:29:44.676Z,101167.25
2023-01-28T03:35:06.046Z,101168.03
2023-01-28T03:40:08.215Z,101169.69
2023-01-28T03:45:10.190Z,101177.19
2023-01-28T03:50:11.768Z,101180.59
2023-01-28T03:55:14.669Z,101188.94
2023-01-28T04:00:18.141Z,101183.97
2023-01-28T04:05:20.271Z,101180.69
2023-01-28T04:10:22.018Z,101183.31
2023-01-28T04:15:24.029Z,101196.75
2023-01-28T04:20:25.443Z,101195.03
2023-01-28T04:25:26.911Z,101200.94
2023-01-28T04:30:28.477Z,101199.28
2023-01-28T04:35:29.957Z,101209.34
2023-01-28T04:40:31.416Z,101202.59
2023-01-28T04:45:32.814Z,101200.06
2023-01-28T04:50:34.271Z,101205.13
2023-01-28T04:55:36.019Z,101206.00
2023-01-28T05:00:37.510Z,101198.41
2023-01-28T05:05:38.902Z,101210.13
2023-01-28T05:10:40.514Z,101216.88
2023-01-28T05:15:41.985Z,101224.41
2023-01-28T05:20:43.371Z,101221.06
2023-01-28T05:25:45.834Z,101220.22
2023-01-28T05:30:47.281Z,101227.69
2023-01-28T05:35:49.786Z,101229.22
2023-01-28T05:40:51.250Z,101229.84
2023-01-28T05:45:53.760Z,101228.88
2023-01-28T05:50:55.294Z,101235.50
2023-01-28T05:55:56.951Z,101240.56
2023-01-28T06:00:58.422Z,101249.78
2023-01-28T06:05:59.893Z,101256.50
2023-01-28T06:11:01.329Z,101268.19
2023-01-28T06:16:03.608Z,101264.84
2023-01-28T06:21:05.317Z,101271.34
2023-01-28T06:26:06.863Z,101287.22
2023-01-28T06:31:08.429Z,101291.34
2023-01-28T06:36:10.130Z,101296.38
2023-01-28T06:41:11.577Z,101302.38
2023-01-28T06:46:13.325Z,101300.88
2023-01-28T06:51:14.881Z,101306.81
2023-01-28T06:56:16.385Z,101304.38
2023-01-28T07:01:17.858Z,101316.06
2023-01-28T07:06:19.407Z,101315.13
2023-01-28T07:11:20.869Z,101331.00
2023-01-28T07:16:22.613Z,101319.25
2023-01-28T07:21:24.027Z,101336.91
2023-01-28T07:26:25.494Z,101322.63
2023-01-28T07:31:27.084Z,101340.22
2023-01-28T07:36:28.643Z,101338.50
2023-01-28T07:41:30.198Z,101349.38
2023-01-28T07:46:31.830Z,101352.91
2023-01-28T07:51:33.389Z,101345.41
2023-01-28T07:56:34.885Z,101363.91
2023-01-28T08:01:36.499Z,101353.91
2023-01-28T08:06:38.041Z,101363.94
2023-01-28T08:11:39.780Z,101359.78
2023-01-28T08:16:41.259Z,101374.03
2023-01-28T08:21:44.493Z,101379.22
2023-01-28T08:26:48.422Z,101374.25
2023-01-28T08:31:49.944Z,101374.38
2023-01-28T08:36:51.558Z,101374.50
2023-01-28T08:41:53.024Z,101382.19
2023-01-28T08:46:54.514Z,101381.44
2023-01-28T08:51:55.990Z,101388.94
2023-01-28T08:56:57.381Z,101386.53
2023-01-28T09:01:59.012Z,101380.78
2023-01-28T09:07:02.005Z,101385.91
2023-01-28T09:12:03.745Z,101389.44
2023-01-28T09:17:05.626Z,101398.00
2023-01-28T09:22:07.109Z,101393.06
2023-01-28T09:27:08.825Z,101398.97
2023-01-28T09:32:10.288Z,101405.78
2023-01-28T09:37:12.259Z,101406.66
2023-01-28T09:42:25.161Z,101412.56
2023-01-28T09:47:30.608Z,101414.38
2023-01-28T09:52:37.018Z,101421.97
2023-01-28T09:57:45.580Z,101420.28
2023-01-28T10:03:01.293Z,101425.28
2023-01-28T10:08:26.622Z,101420.47
2023-01-28T10:13:51.408Z,101420.78
2023-01-28T10:19:02.789Z,101421.47
2023-01-28T10:24:32.156Z,101417.97
2023-01-28T10:29:35.279Z,101410.25
2023-01-28T10:34:37.398Z,101411.94
2023-01-28T10:39:38.925Z,101412.88
2023-01-28T10:44:44.552Z,101406.16
2023-01-28T10:49:51.882Z,101417.03
2023-01-28T10:55:01.356Z,101412.81
2023-01-28T11:00:24.453Z,101422.13
2023-01-28T11:05:30.985Z,101415.50
2023-01-28T11:10:35.438Z,101419.66
2023-01-28T11:15:46.306Z,101422.03
2023-01-28T11:21:19.617Z,101418.50
2023-01-28T11:26:31.049Z,101426.72
2023-01-28T11:31:41.725Z,101430.03
2023-01-28T11:36:51.977Z,101435.09
2023-01-28T11:41:54.098Z,101425.06
2023-01-28T11:47:10.955Z,101434.25
2023-01-28T11:53:05.933Z,101423.47
2023-01-28T11:58:27.696Z,101428.50
2023-01-28T12:03:38.552Z,101438.59
2023-01-28T12:08:52.482Z,101421.72
2023-01-28T12:14:12.160Z,101419.25
2023-01-28T12:19:24.058Z,101416.06
2023-01-28T12:24:34.387Z,101416.22
2023-01-28T12:29:50.584Z,101410.50
2023-01-28T12:34:56.865Z,101409.81
2023-01-28T12:40:10.595Z,101403.97
2023-01-28T12:45:20.041Z,101399.63
2023-01-28T12:50:29.893Z,101403.13
2023-01-28T12:55:54.284Z,101403.25
2023-01-28T13:01:03.645Z,101409.97
2023-01-28T13:06:10.984Z,101397.38
2023-01-28T13:11:17.172Z,101389.91
2023-01-28T13:16:21.299Z,101393.13
2023-01-28T13:21:29.044Z,101398.91
2023-01-28T13:26:46.080Z,101397.22
2023-01-28T13:31:52.312Z,101404.84
2023-01-28T13:36:54.720Z,101405.63
2023-01-28T13:42:10.318Z,101405.41
2023-01-28T13:47:17.322Z,101417.28
2023-01-28T13:52:37.575Z,101418.16
2023-01-28T13:58:03.929Z,101418.94
2023-01-28T14:03:07.050Z,101439.06
2023-01-28T14:08:42.663Z,101433.19
2023-01-28T14:14:19.543Z,101431.41
2023-01-28T14:19:31.858Z,101441.50
2023-01-28T14:24:33.952Z,101455.88
2023-01-28T14:29:58.004Z,101450.91
2023-01-28T14:35:05.823Z,101461.88
2023-01-28T14:40:12.545Z,101474.44
2023-01-28T14:45:55.248Z,101477.78
2023-01-28T14:51:19.520Z,101479.44
2023-01-28T14:56:35.537Z,101492.75
2023-01-28T15:01:45.023Z,101487.56
2023-01-28T15:06:46.576Z,101496.81
2023-01-28T15:11:52.120Z,101494.31
2023-01-28T15:16:54.463Z,101503.56
2023-01-28T15:21:58.933Z,101492.63
2023-01-28T15:27:01.372Z,101492.63
2023-01-28T15:32:04.745Z,101506.06
2023-01-28T15:37:06.382Z,101516.13
2023-01-28T15:42:08.062Z,101526.06
2023-01-28T15:47:28.770Z,101530.88
2023-01-28T15:52:42.012Z,101542.50
2023-01-28T15:57:43.531Z,101534.81
2023-01-28T16:02:46.673Z,101539.78
2023-01-28T16:07:48.192Z,101535.63
2023-01-28T16:12:54.555Z,101535.59
2023-01-28T16:17:56.145Z,101536.41
2023-01-28T16:23:03.053Z,101522.88
2023-01-28T16:28:18.750Z,101534.53
2023-01-28T16:33:22.098Z,101542.84
2023-01-28T16:38:23.605Z,101536.03
2023-01-28T16:43:25.058Z,101533.50
2023-01-28T16:48:26.534Z,101533.50
2023-01-28T16:53:34.594Z,101538.53
2023-01-28T16:58:36.335Z,101535.94
2023-01-28T17:03:40.925Z,101535.94
2023-01-28T17:08:42.443Z,101545.94
2023-01-28T17:13:43.931Z,101556.84
2023-01-28T17:18:46.907Z,101556.88
2023-01-28T17:23:50.195Z,101564.34
2023-01-28T17:28:53.425Z,101568.50
2023-01-28T17:33:56.827Z,101569.25
2023-01-28T17:38:58.286Z,101578.41
2023-01-28T17:43:59.821Z,101583.38
2023-01-28T17:49:01.983Z,101585.03
2023-01-28T17:54:04.014Z,101595.97
2023-01-28T17:59:06.602Z,101591.88
2023-01-28T18:04:08.209Z,101585.97
2023-01-28T18:09:10.050Z,101588.44
2023-01-28T18:14:11.533Z,101600.06
2023-01-28T18:19:12.951Z,101603.38
2023-01-28T18:24:14.855Z,101601.63
2023-01-28T18:29:20.387Z,101624.38
2023-01-28T18:34:24.271Z,101628.53
2023-01-28T18:39:30.146Z,101630.22
2023-01-28T18:44:32.013Z,101630.09
2023-01-28T18:49:33.531Z,101634.13
2023-01-28T18:54:35.261Z,101619.81
2023-01-28T18:59:36.680Z,101632.34
2023-01-28T19:04:38.164Z,101629.81
2023-01-28T19:09:39.636Z,101634.75
2023-01-28T19:14:41.449Z,101630.53
2023-01-28T19:19:42.918Z,101633.13
2023-01-28T19:24:44.409Z,101631.44
2023-01-28T19:29:46.023Z,101639.78
2023-01-28T19:34:47.552Z,101638.94
2023-01-28T19:39:49.178Z,101637.19
2023-01-28T19:44:51.339Z,101643.09
2023-01-28T19:49:52.790Z,101639.78
2023-01-28T19:54:54.279Z,101641.28
2023-01-28T19:59:55.755Z,101657.94
2023-01-28T20:05:00.913Z,101669.56
2023-01-28T20:10:02.761Z,101692.94
2023-01-28T20:15:04.538Z,101692.06
2023-01-28T20:20:06.834Z,101696.16
2023-01-28T20:25:09.064Z,101695.16
2023-01-28T20:30:11.275Z,101707.59
2023-01-28T20:35:12.905Z,101718.41
2023-01-28T20:40:14.589Z,101708.47
2023-01-28T20:45:16.616Z,101711.00
2023-01-28T20:50:19.900Z,101713.59
2023-01-28T20:55:21.409Z,101706.78
2023-01-28T21:00:23.618Z,101718.53
2023-01-28T21:05:25.160Z,101730.22
2023-01-28T21:10:26.683Z,101729.22
2023-01-28T21:15:28.358Z,101732.31
2023-01-28T21:20:31.938Z,101716.25
2023-01-28T21:25:33.403Z,101728.81
2023-01-28T21:30:34.922Z,101723.75
2023-01-28T21:35:42.303Z,101724.78
2023-01-28T21:40:43.755Z,101732.19
2023-01-28T21:45:48.531Z,101729.69
2023-01-28T21:51:08.829Z,101735.50
2023-01-28T21:56:10.285Z,101734.69
2023-01-28T22:01:11.905Z,101741.38
2023-01-28T22:06:13.421Z,101738.19
2023-01-28T22:11:14.839Z,101749.69
2023-01-28T22:16:17.397Z,101739.53
2023-01-28T22:21:18.845Z,101736.22
2023-01-28T22:26:20.344Z,101737.97
2023-01-28T22:31:21.917Z,101743.84
2023-01-28T22:36:23.789Z,101736.22
2023-01-28T22:41:25.625Z,101732.94
2023-01-28T22:46:27.873Z,101724.59
2023-01-28T22:51:34.798Z,101719.59
2023-01-28T22:56:36.292Z,101717.13
2023-01-28T23:01:37.883Z,101707.88
2023-01-28T23:06:39.458Z,101715.31
2023-01-28T23:11:40.877Z,101719.53
2023-01-28T23:17:00.859Z,101721.09
2023-01-28T23:22:20.740Z,101714.94
2023-01-28T23:27:22.166Z,101724.91
2023-01-28T23:32:23.686Z,101712.06
2023-01-28T23:37:25.168Z,101706.81
2023-01-28T23:42:26.632Z,101710.91
2023-01-28T23:47:28.154Z,101709.09
2023-01-28T23:52:29.670Z,101706.69
2023-01-28T23:57:31.176Z,101712.34
